sensor_id;sensor_type;location;lat;lon;timestamp;P1;durP1;ratioP1;P2;durP2;ratioP2
55150;SDS011;41041;43.162;20.538;2024-02-16T09:52:33;26.55;;;12.55;;
55150;SDS011;41041;43.162;20.538;2024-02-16T09:55:01;26.70;;;11.18;;
55150;SDS011;41041;43.162;20.538;2024-02-16T09:57:27;20.50;;;10.48;;
55150;SDS011;41041;43.162;20.538;2024-02-16T09:59:53;24.00;;;10.75;;
55150;SDS011;41041;43.162;20.538;2024-02-16T10:02:20;22.08;;;10.32;;
55150;SDS011;41041;43.162;20.538;2024-02-16T10:04:47;17.90;;;9.55;;
55150;SDS011;41041;43.162;20.538;2024-02-16T10:07:13;18.73;;;10.10;;
55150;SDS011;41041;43.162;20.538;2024-02-16T10:09:39;25.75;;;13.20;;
55150;SDS011;41041;43.162;20.538;2024-02-16T10:12:06;25.67;;;14.05;;
55150;SDS011;41041;43.162;20.538;2024-02-16T10:14:32;13.43;;;8.15;;
55150;SDS011;41041;43.162;20.538;2024-02-16T10:17:02;12.07;;;7.60;;
55150;SDS011;41041;43.162;20.538;2024-02-16T10:19:29;12.93;;;7.13;;
55150;SDS011;41041;43.162;20.538;2024-02-16T10:22:05;12.85;;;6.75;;
55150;SDS011;41041;43.162;20.538;2024-02-16T10:24:32;14.30;;;8.23;;
55150;SDS011;41041;43.162;20.538;2024-02-16T10:26:58;15.00;;;7.70;;
55150;SDS011;41041;43.162;20.538;2024-02-16T10:29:24;10.82;;;6.90;;
55150;SDS011;41041;43.162;20.538;2024-02-16T10:31:52;18.27;;;8.70;;
55150;SDS011;41041;43.162;20.538;2024-02-16T10:34:18;14.77;;;8.70;;
55150;SDS011;41041;43.162;20.538;2024-02-16T10:36:48;17.27;;;9.15;;
55150;SDS011;41041;43.162;20.538;2024-02-16T10:39:14;21.15;;;11.25;;
55150;SDS011;41041;43.162;20.538;2024-02-16T10:41:41;24.75;;;12.10;;
55150;SDS011;41041;43.162;20.538;2024-02-16T10:44:07;25.05;;;12.40;;
55150;SDS011;41041;43.162;20.538;2024-02-16T10:46:34;24.30;;;11.75;;
55150;SDS011;41041;43.162;20.538;2024-02-16T10:51:49;8.40;;;4.50;;
55150;SDS011;41041;43.162;20.538;2024-02-16T10:54:18;9.13;;;4.80;;
55150;SDS011;41041;43.162;20.538;2024-02-16T10:56:46;14.80;;;5.07;;
55150;SDS011;41041;43.162;20.538;2024-02-16T10:59:13;6.93;;;3.35;;
55150;SDS011;41041;43.162;20.538;2024-02-16T11:04:06;8.82;;;2.63;;
55150;SDS011;41041;43.162;20.538;2024-02-16T11:06:48;3.10;;;2.08;;
55150;SDS011;41041;43.162;20.538;2024-02-16T11:09:27;11.85;;;4.00;;
55150;SDS011;41041;43.162;20.538;2024-02-16T11:12:03;5.30;;;3.20;;
55150;SDS011;41041;43.162;20.538;2024-02-16T11:14:36;7.85;;;4.72;;
55150;SDS011;41041;43.162;20.538;2024-02-16T11:17:12;9.45;;;5.45;;
55150;SDS011;41041;43.162;20.538;2024-02-16T11:19:43;8.40;;;3.60;;
55150;SDS011;41041;43.162;20.538;2024-02-16T11:22:09;5.20;;;3.23;;
55150;SDS011;41041;43.162;20.538;2024-02-16T11:24:37;5.75;;;3.53;;
55150;SDS011;41041;43.162;20.538;2024-02-16T11:27:04;5.95;;;3.45;;
55150;SDS011;41041;43.162;20.538;2024-02-16T11:29:31;4.20;;;2.50;;
55150;SDS011;41041;43.162;20.538;2024-02-16T11:31:58;3.55;;;2.42;;
55150;SDS011;41041;43.162;20.538;2024-02-16T11:34:26;4.07;;;2.03;;
55150;SDS011;41041;43.162;20.538;2024-02-16T11:36:55;4.03;;;2.10;;
55150;SDS011;41041;43.162;20.538;2024-02-16T11:39:22;6.00;;;2.75;;
55150;SDS011;41041;43.162;20.538;2024-02-16T11:41:58;6.57;;;2.60;;
55150;SDS011;41041;43.162;20.538;2024-02-16T11:44:26;5.15;;;2.72;;
55150;SDS011;41041;43.162;20.538;2024-02-16T11:46:54;8.60;;;3.03;;
55150;SDS011;41041;43.162;20.538;2024-02-16T11:49:20;4.72;;;2.70;;
55150;SDS011;41041;43.162;20.538;2024-02-16T11:51:47;5.10;;;2.40;;
55150;SDS011;41041;43.162;20.538;2024-02-16T11:54:13;4.55;;;2.42;;
55150;SDS011;41041;43.162;20.538;2024-02-16T11:56:43;4.50;;;1.83;;
55150;SDS011;41041;43.162;20.538;2024-02-16T11:59:12;2.90;;;1.83;;
55150;SDS011;41041;43.162;20.538;2024-02-16T12:04:22;5.63;;;2.50;;
55150;SDS011;41041;43.162;20.538;2024-02-16T12:06:53;4.63;;;2.10;;
55150;SDS011;41041;43.162;20.538;2024-02-16T12:09:23;4.72;;;2.20;;
55150;SDS011;41041;43.162;20.538;2024-02-16T12:11:52;4.05;;;2.30;;
55150;SDS011;41041;43.162;20.538;2024-02-16T12:14:20;3.90;;;1.83;;
55150;SDS011;41041;43.162;20.538;2024-02-16T12:16:57;3.45;;;1.90;;
55150;SDS011;41041;43.162;20.538;2024-02-16T12:19:24;3.70;;;2.00;;
55150;SDS011;41041;43.162;20.538;2024-02-16T12:21:54;5.35;;;1.90;;
55150;SDS011;41041;43.162;20.538;2024-02-16T12:24:22;3.63;;;1.90;;
55150;SDS011;41041;43.162;20.538;2024-02-16T12:26:49;3.95;;;2.30;;
55150;SDS011;41041;43.162;20.538;2024-02-16T12:29:15;4.78;;;2.50;;
55150;SDS011;41041;43.162;20.538;2024-02-16T12:31:42;4.35;;;1.73;;
55150;SDS011;41041;43.162;20.538;2024-02-16T12:34:09;3.67;;;2.10;;
55150;SDS011;41041;43.162;20.538;2024-02-16T12:36:36;4.45;;;2.10;;
55150;SDS011;41041;43.162;20.538;2024-02-16T12:39:02;7.88;;;2.28;;
55150;SDS011;41041;43.162;20.538;2024-02-16T12:41:29;3.28;;;2.00;;
55150;SDS011;41041;43.162;20.538;2024-02-16T12:43:56;3.92;;;1.75;;
55150;SDS011;41041;43.162;20.538;2024-02-16T12:46:22;4.15;;;1.83;;
55150;SDS011;41041;43.162;20.538;2024-02-16T12:48:48;3.33;;;1.73;;
55150;SDS011;41041;43.162;20.538;2024-02-16T12:51:14;4.13;;;2.10;;
55150;SDS011;41041;43.162;20.538;2024-02-16T12:53:40;2.97;;;1.70;;
55150;SDS011;41041;43.162;20.538;2024-02-16T12:56:07;3.97;;;1.48;;
55150;SDS011;41041;43.162;20.538;2024-02-16T12:58:34;3.42;;;1.50;;
55150;SDS011;41041;43.162;20.538;2024-02-16T13:01:01;3.40;;;2.00;;
55150;SDS011;41041;43.162;20.538;2024-02-16T13:03:27;3.88;;;1.85;;
55150;SDS011;41041;43.162;20.538;2024-02-16T13:05:53;8.13;;;3.15;;
55150;SDS011;41041;43.162;20.538;2024-02-16T13:11:12;2.95;;;1.90;;
55150;SDS011;41041;43.162;20.538;2024-02-16T13:13:38;3.92;;;2.20;;
55150;SDS011;41041;43.162;20.538;2024-02-16T13:16:05;2.90;;;1.65;;
55150;SDS011;41041;43.162;20.538;2024-02-16T13:18:31;2.75;;;1.40;;
55150;SDS011;41041;43.162;20.538;2024-02-16T13:20:57;3.17;;;1.77;;
55150;SDS011;41041;43.162;20.538;2024-02-16T13:23:23;4.15;;;2.08;;
55150;SDS011;41041;43.162;20.538;2024-02-16T13:25:49;3.53;;;1.50;;
55150;SDS011;41041;43.162;20.538;2024-02-16T13:28:15;3.05;;;1.77;;
55150;SDS011;41041;43.162;20.538;2024-02-16T13:30:42;4.07;;;1.67;;
55150;SDS011;41041;43.162;20.538;2024-02-16T13:33:20;4.07;;;1.42;;
55150;SDS011;41041;43.162;20.538;2024-02-16T13:35:46;3.60;;;1.73;;
55150;SDS011;41041;43.162;20.538;2024-02-16T13:38:13;4.13;;;2.28;;
55150;SDS011;41041;43.162;20.538;2024-02-16T13:40:39;4.55;;;2.40;;
55150;SDS011;41041;43.162;20.538;2024-02-16T13:43:07;4.40;;;2.00;;
55150;SDS011;41041;43.162;20.538;2024-02-16T13:45:53;3.20;;;1.55;;
55150;SDS011;41041;43.162;20.538;2024-02-16T13:48:27;4.53;;;2.15;;
55150;SDS011;41041;43.162;20.538;2024-02-16T13:50:55;2.97;;;1.50;;
55150;SDS011;41041;43.162;20.538;2024-02-16T13:53:21;3.08;;;1.60;;
55150;SDS011;41041;43.162;20.538;2024-02-16T13:55:48;2.42;;;1.42;;
55150;SDS011;41041;43.162;20.538;2024-02-16T13:58:14;3.63;;;2.10;;
55150;SDS011;41041;43.162;20.538;2024-02-16T14:00:40;5.18;;;2.40;;
55150;SDS011;41041;43.162;20.538;2024-02-16T14:03:08;3.42;;;1.80;;
55150;SDS011;41041;43.162;20.538;2024-02-16T14:05:37;2.83;;;1.50;;
55150;SDS011;41041;43.162;20.538;2024-02-16T14:08:04;2.60;;;1.40;;
55150;SDS011;41041;43.162;20.538;2024-02-16T14:10:31;5.78;;;1.70;;
55150;SDS011;41041;43.162;20.538;2024-02-16T14:12:57;3.78;;;1.90;;
55150;SDS011;41041;43.162;20.538;2024-02-16T14:15:37;6.10;;;2.13;;
55150;SDS011;41041;43.162;20.538;2024-02-16T14:18:03;4.28;;;2.00;;
55150;SDS011;41041;43.162;20.538;2024-02-16T14:20:29;2.08;;;1.25;;
55150;SDS011;41041;43.162;20.538;2024-02-16T14:23:05;2.55;;;1.50;;
55150;SDS011;41041;43.162;20.538;2024-02-16T14:25:33;2.22;;;1.40;;
55150;SDS011;41041;43.162;20.538;2024-02-16T14:28:00;2.90;;;1.30;;
55150;SDS011;41041;43.162;20.538;2024-02-16T14:30:38;3.85;;;1.27;;
55150;SDS011;41041;43.162;20.538;2024-02-16T14:33:06;2.97;;;1.42;;
55150;SDS011;41041;43.162;20.538;2024-02-16T14:35:33;4.57;;;2.55;;
55150;SDS011;41041;43.162;20.538;2024-02-16T14:38:01;6.18;;;3.38;;
55150;SDS011;41041;43.162;20.538;2024-02-16T14:40:27;5.28;;;2.67;;
55150;SDS011;41041;43.162;20.538;2024-02-16T14:42:55;2.90;;;1.50;;
55150;SDS011;41041;43.162;20.538;2024-02-16T14:45:21;2.92;;;1.63;;
55150;SDS011;41041;43.162;20.538;2024-02-16T14:47:51;3.58;;;2.00;;
55150;SDS011;41041;43.162;20.538;2024-02-16T14:50:17;6.70;;;3.70;;
55150;SDS011;41041;43.162;20.538;2024-02-16T14:52:47;18.35;;;9.60;;
55150;SDS011;41041;43.162;20.538;2024-02-16T14:55:13;24.27;;;11.73;;
55150;SDS011;41041;43.162;20.538;2024-02-16T14:57:39;21.85;;;11.93;;
55150;SDS011;41041;43.162;20.538;2024-02-16T15:00:08;19.98;;;10.90;;
55150;SDS011;41041;43.162;20.538;2024-02-16T15:02:35;23.90;;;13.85;;
55150;SDS011;41041;43.162;20.538;2024-02-16T15:05:03;31.77;;;17.15;;
55150;SDS011;41041;43.162;20.538;2024-02-16T15:07:29;25.08;;;13.77;;
55150;SDS011;41041;43.162;20.538;2024-02-16T15:13:09;24.27;;;12.35;;
55150;SDS011;41041;43.162;20.538;2024-02-16T15:15:35;23.10;;;12.68;;
55150;SDS011;41041;43.162;20.538;2024-02-16T15:18:01;17.85;;;9.23;;
55150;SDS011;41041;43.162;20.538;2024-02-16T15:20:40;14.32;;;7.80;;
55150;SDS011;41041;43.162;20.538;2024-02-16T15:23:06;13.82;;;8.00;;
55150;SDS011;41041;43.162;20.538;2024-02-16T15:25:32;12.65;;;7.00;;
55150;SDS011;41041;43.162;20.538;2024-02-16T15:28:12;10.45;;;5.88;;
55150;SDS011;41041;43.162;20.538;2024-02-16T15:30:38;12.00;;;5.60;;
55150;SDS011;41041;43.162;20.538;2024-02-16T15:33:05;12.00;;;6.65;;
55150;SDS011;41041;43.162;20.538;2024-02-16T15:35:33;15.38;;;5.30;;
55150;SDS011;41041;43.162;20.538;2024-02-16T15:37:59;10.77;;;4.63;;
55150;SDS011;41041;43.162;20.538;2024-02-16T15:40:25;8.93;;;4.68;;
55150;SDS011;41041;43.162;20.538;2024-02-16T15:42:58;11.35;;;4.10;;
55150;SDS011;41041;43.162;20.538;2024-02-16T15:45:26;13.73;;;4.97;;
55150;SDS011;41041;43.162;20.538;2024-02-16T15:47:52;9.73;;;4.50;;
55150;SDS011;41041;43.162;20.538;2024-02-16T15:50:18;14.30;;;5.07;;
55150;SDS011;41041;43.162;20.538;2024-02-16T16:18:21;235.48;;;78.28;;
55150;SDS011;41041;43.162;20.538;2024-02-16T16:21:00;68.30;;;33.72;;
55150;SDS011;41041;43.162;20.538;2024-02-16T16:23:29;55.72;;;28.77;;
55150;SDS011;41041;43.162;20.538;2024-02-16T16:38:01;46.63;;;21.13;;
55150;SDS011;41041;43.162;20.538;2024-02-16T16:40:27;39.20;;;18.83;;
55150;SDS011;41041;43.162;20.538;2024-02-16T16:52:07;55.53;;;25.73;;
55150;SDS011;41041;43.162;20.538;2024-02-16T16:54:34;34.63;;;12.90;;
55150;SDS011;41041;43.162;20.538;2024-02-16T16:57:02;39.30;;;15.90;;
55150;SDS011;41041;43.162;20.538;2024-02-16T17:17:56;30.95;;;15.57;;
55150;SDS011;41041;43.162;20.538;2024-02-16T17:20:22;26.38;;;12.10;;
55150;SDS011;41041;43.162;20.538;2024-02-16T17:22:50;30.33;;;16.17;;
55150;SDS011;41041;43.162;20.538;2024-02-16T17:34:30;28.13;;;14.00;;
55150;SDS011;41041;43.162;20.538;2024-02-16T17:36:56;35.30;;;18.48;;
55150;SDS011;41041;43.162;20.538;2024-02-16T17:39:22;41.67;;;20.30;;
